Angora, MN (55703)

10:20 PM CDT on August 28, 2016 (GMT -0500)
Cook Municipal | | Change Station
Active Advisory: Severe Thunderstorm Warning

Elev 1325 ft 47.82 °N, 92.69 °W | Updated 5 minutes ago

Clear
Clear
64 °F
Feels Like 64 °F
N
4
Wind Variable Wind from East

Today
High -- | Low -- °F
--% Chance of Precip.
Yesterday
High -- | Low -- °F
Precip. -- in
Pressure 30.14 in
Visibility 10.0 miles
Clouds Clear
Dew Point 63 °F
Humidity 94%
Rainfall 0.23 in
Snow Depth Not available.
6:24 AM 7:58 PM
Waning Crescent, 11% visible
METAR KCQM 290315Z AUTO 09003KT 10SM CLR 18/17 A3014 RMK AO2 LTG DSNT N AND NW
Pressure 30.14 in
Visibility 10.0 miles
Clouds Clear
Dew Point 63 °F
Humidity 94%
Rainfall 0.23 in
Snow Depth Not available.
6:24 AM 7:58 PM
Waning Crescent, 11% visible
METAR KCQM 290315Z AUTO 09003KT 10SM CLR 18/17 A3014 RMK AO2 LTG DSNT N AND NW

10-Day Weather Forecast

Almanac

Astronomy

Aug. 28, 2016 Rise Set
Actual Time
Civil Twilight
Nautical Twilight
Astronomical Twilight
Moon
Length of Visible Light
Length of Day
Tomorrow will be .
, % of the Moon is Illuminated

Today's Extremes

State Highs State Lows

Community

WunderPhotos

Upload Photos

1,935,778 photos uploaded!

WunderBlog® & News

Nearby

Air Quality

  Air Quality AQ Index Pollutant
Not available.

Snow Depth

Station Depth Elevation

Earthquake Activity

City Distance Mag. Time & Date
Minimum magnitude displayed is 2.5.

Coastal Water Temperatures

Place Temperature

Stations

Nearby Weather Stations

Station Location Temp. Windchill Dew Point Humidity Wind Precip. Elev Updated Type
                   

Watches & Warnings

Severe Thunderstorm Warning
Issued: 10:01 PM CDT Aug. 28, 2016 – National Weather Service

The National Weather Service in Duluth MN has issued a

* Severe Thunderstorm Warning for...
northwestern St. Louis County in northeastern Minnesota...
east central Koochiching County in north central Minnesota...

* until 1045 PM CDT

* at 1001 PM CDT... a severe thunderstorm was located near
Kabetogama... or 13 miles southwest of Voyageurs National
Park... moving east at 25 mph.

Hazard... 60 mph wind gusts and quarter size hail.

Source... radar indicated.

Impact... hail damage to vehicles is expected. Expect wind damage
           to roofs... siding... and trees.

* This severe thunderstorm will be near...
Kabetogama Lake around 1020 PM CDT.

Other locations impacted by this severe thunderstorm include Sand
Point Lake.

Precautionary/preparedness actions...

For your protection move to an interior room on the lowest floor of a
building.


Lat... Lon 4843 9248 4817 9252 4827 9321 4844 9316
time... Mot... loc 0301z 273deg 22kt 4835 9306

Hail... 1.00in
wind... 60mph


Le